sensor_id;sensor_type;location;lat;lon;timestamp;pressure;altitude;pressure_sealevel;temperature;humidity
48216;BME280;34005;48.844;10.098;2023-01-01T00:00:03;96992.53;;;14.29;59.78
48216;BME280;34005;48.844;10.098;2023-01-01T00:02:33;97002.63;;;14.32;60.08
48216;BME280;34005;48.844;10.098;2023-01-01T00:05:03;96998.81;;;14.34;60.25
48216;BME280;34005;48.844;10.098;2023-01-01T00:07:31;96999.41;;;14.36;59.72
48216;BME280;34005;48.844;10.098;2023-01-01T00:09:58;97006.09;;;14.39;58.34
48216;BME280;34005;48.844;10.098;2023-01-01T00:12:43;97004.91;;;14.41;58.49
48216;BME280;34005;48.844;10.098;2023-01-01T00:15:11;97010.78;;;14.43;59.20
48216;BME280;34005;48.844;10.098;2023-01-01T00:17:40;97009.56;;;14.46;57.91
48216;BME280;34005;48.844;10.098;2023-01-01T00:20:08;97012.63;;;14.50;58.63
48216;BME280;34005;48.844;10.098;2023-01-01T00:22:36;97013.19;;;14.52;58.51
48216;BME280;34005;48.844;10.098;2023-01-01T00:25:21;97006.78;;;14.54;57.68
48216;BME280;34005;48.844;10.098;2023-01-01T00:27:49;97019.72;;;14.56;58.20
48216;BME280;34005;48.844;10.098;2023-01-01T00:30:17;97016.72;;;14.59;57.29
48216;BME280;34005;48.844;10.098;2023-01-01T00:32:46;97021.56;;;14.62;58.40
48216;BME280;34005;48.844;10.098;2023-01-01T00:35:21;97013.50;;;14.63;58.32
48216;BME280;34005;48.844;10.098;2023-01-01T00:37:48;97014.91;;;14.66;57.69
48216;BME280;34005;48.844;10.098;2023-01-01T00:40:16;97014.50;;;14.69;58.01
48216;BME280;34005;48.844;10.098;2023-01-01T00:42:44;97020.38;;;14.71;57.51
48216;BME280;34005;48.844;10.098;2023-01-01T00:45:11;97013.31;;;14.72;57.74
48216;BME280;34005;48.844;10.098;2023-01-01T00:47:47;97015.72;;;14.73;58.41
48216;BME280;34005;48.844;10.098;2023-01-01T00:50:15;97017.38;;;14.74;58.35
48216;BME280;34005;48.844;10.098;2023-01-01T00:52:42;97013.72;;;14.75;57.41
48216;BME280;34005;48.844;10.098;2023-01-01T00:55:10;97012.72;;;14.76;59.03
48216;BME280;34005;48.844;10.098;2023-01-01T00:57:37;97011.69;;;14.77;59.86
48216;BME280;34005;48.844;10.098;2023-01-01T01:00:07;97013.53;;;14.77;60.40
48216;BME280;34005;48.844;10.098;2023-01-01T01:02:35;97006.44;;;14.77;58.36
48216;BME280;34005;48.844;10.098;2023-01-01T01:05:05;97016.97;;;14.77;57.54
48216;BME280;34005;48.844;10.098;2023-01-01T01:07:34;97018.59;;;14.78;57.29
48216;BME280;34005;48.844;10.098;2023-01-01T01:10:02;97012.31;;;14.79;59.30
48216;BME280;34005;48.844;10.098;2023-01-01T01:12:30;97003.22;;;14.82;57.47
48216;BME280;34005;48.844;10.098;2023-01-01T01:14:57;97003.22;;;14.82;57.83
48216;BME280;34005;48.844;10.098;2023-01-01T01:17:25;96998.81;;;14.82;57.73
48216;BME280;34005;48.844;10.098;2023-01-01T01:19:52;97009.31;;;14.82;56.53
48216;BME280;34005;48.844;10.098;2023-01-01T01:22:21;97008.09;;;14.85;57.78
48216;BME280;34005;48.844;10.098;2023-01-01T01:24:54;97011.72;;;14.84;57.74
48216;BME280;34005;48.844;10.098;2023-01-01T01:27:21;97010.91;;;14.83;58.52
48216;BME280;34005;48.844;10.098;2023-01-01T01:29:49;97012.53;;;14.84;58.97
48216;BME280;34005;48.844;10.098;2023-01-01T01:32:17;97016.97;;;14.84;59.57
48216;BME280;34005;48.844;10.098;2023-01-01T01:34:44;97016.78;;;14.86;60.67
48216;BME280;34005;48.844;10.098;2023-01-01T01:37:12;97011.72;;;14.84;58.88
48216;BME280;34005;48.844;10.098;2023-01-01T01:39:41;97018.59;;;14.85;58.20
48216;BME280;34005;48.844;10.098;2023-01-01T01:42:15;97006.47;;;14.84;56.63
48216;BME280;34005;48.844;10.098;2023-01-01T01:45:01;97013.13;;;14.87;59.12
48216;BME280;34005;48.844;10.098;2023-01-01T01:47:32;97021.00;;;14.87;58.59
48216;BME280;34005;48.844;10.098;2023-01-01T01:50:06;97014.16;;;14.86;57.24
48216;BME280;34005;48.844;10.098;2023-01-01T01:52:37;97015.56;;;14.88;57.14
48216;BME280;34005;48.844;10.098;2023-01-01T01:55:08;97012.16;;;14.88;57.25
48216;BME280;34005;48.844;10.098;2023-01-01T01:57:36;97012.94;;;14.88;56.38
48216;BME280;34005;48.844;10.098;2023-01-01T02:00:06;97003.66;;;14.86;56.17
48216;BME280;34005;48.844;10.098;2023-01-01T02:02:41;96997.38;;;14.87;57.75
48216;BME280;34005;48.844;10.098;2023-01-01T02:05:11;96991.50;;;14.84;56.97
48216;BME280;34005;48.844;10.098;2023-01-01T02:07:40;97017.19;;;14.82;56.30
48216;BME280;34005;48.844;10.098;2023-01-01T02:10:09;97008.47;;;14.82;56.25
48216;BME280;34005;48.844;10.098;2023-01-01T02:12:36;97007.69;;;14.81;56.17
48216;BME280;34005;48.844;10.098;2023-01-01T02:15:05;97006.06;;;14.80;56.19
48216;BME280;34005;48.844;10.098;2023-01-01T02:17:37;97009.69;;;14.79;56.32
48216;BME280;34005;48.844;10.098;2023-01-01T02:20:18;97005.47;;;14.78;58.99
48216;BME280;34005;48.844;10.098;2023-01-01T02:26:03;97008.47;;;14.75;56.12
48216;BME280;34005;48.844;10.098;2023-01-01T02:28:47;97013.31;;;14.72;55.85
48216;BME280;34005;48.844;10.098;2023-01-01T02:31:20;97003.41;;;14.67;55.98
48216;BME280;34005;48.844;10.098;2023-01-01T02:33:52;97011.06;;;14.62;55.78
48216;BME280;34005;48.844;10.098;2023-01-01T02:36:21;97011.66;;;14.57;55.93
48216;BME280;34005;48.844;10.098;2023-01-01T02:38:52;97011.19;;;14.54;55.95
48216;BME280;34005;48.844;10.098;2023-01-01T02:41:24;97012.00;;;14.48;56.27
48216;BME280;34005;48.844;10.098;2023-01-01T02:43:54;97014.78;;;14.39;56.19
48216;BME280;34005;48.844;10.098;2023-01-01T02:46:21;97014.94;;;14.31;56.25
48216;BME280;34005;48.844;10.098;2023-01-01T02:48:49;97015.50;;;14.20;56.83
48216;BME280;34005;48.844;10.098;2023-01-01T02:51:24;97025.94;;;14.07;57.08
48216;BME280;34005;48.844;10.098;2023-01-01T02:53:58;97024.22;;;13.92;57.45
48216;BME280;34005;48.844;10.098;2023-01-01T02:56:35;97048.34;;;13.81;58.05
48216;BME280;34005;48.844;10.098;2023-01-01T02:59:14;97035.75;;;13.70;58.33
48216;BME280;34005;48.844;10.098;2023-01-01T03:02:09;97040.91;;;13.56;58.74
48216;BME280;34005;48.844;10.098;2023-01-01T03:04:48;97053.72;;;13.45;59.26
48216;BME280;34005;48.844;10.098;2023-01-01T03:07:24;97047.19;;;13.34;59.27
48216;BME280;34005;48.844;10.098;2023-01-01T03:09:56;97047.91;;;13.28;59.70
48216;BME280;34005;48.844;10.098;2023-01-01T03:12:30;97040.59;;;13.23;59.95
48216;BME280;34005;48.844;10.098;2023-01-01T03:15:14;97044.16;;;13.15;60.22
48216;BME280;34005;48.844;10.098;2023-01-01T03:17:50;97049.75;;;13.12;60.29
48216;BME280;34005;48.844;10.098;2023-01-01T03:20:26;97040.47;;;13.10;60.40
48216;BME280;34005;48.844;10.098;2023-01-01T03:23:00;97026.31;;;13.04;60.65
48216;BME280;34005;48.844;10.098;2023-01-01T03:25:31;97038.16;;;13.00;61.09
48216;BME280;34005;48.844;10.098;2023-01-01T03:28:03;97035.91;;;12.97;60.94
48216;BME280;34005;48.844;10.098;2023-01-01T03:30:36;97038.09;;;12.93;60.90
48216;BME280;34005;48.844;10.098;2023-01-01T03:33:07;97039.63;;;12.88;61.10
48216;BME280;34005;48.844;10.098;2023-01-01T03:35:41;97028.72;;;12.84;61.30
48216;BME280;34005;48.844;10.098;2023-01-01T03:38:16;97039.38;;;12.83;61.31
48216;BME280;34005;48.844;10.098;2023-01-01T03:40:47;97042.16;;;12.81;61.45
48216;BME280;34005;48.844;10.098;2023-01-01T03:43:20;97036.13;;;12.81;61.74
48216;BME280;34005;48.844;10.098;2023-01-01T03:45:53;97023.84;;;12.81;61.42
48216;BME280;34005;48.844;10.098;2023-01-01T03:48:23;97037.13;;;12.80;61.53
48216;BME280;34005;48.844;10.098;2023-01-01T03:50:57;97041.56;;;12.79;62.30
48216;BME280;34005;48.844;10.098;2023-01-01T03:53:36;97032.88;;;12.78;62.05
48216;BME280;34005;48.844;10.098;2023-01-01T03:56:13;97039.75;;;12.80;62.70
48216;BME280;34005;48.844;10.098;2023-01-01T03:58:49;97036.94;;;12.81;64.58
48216;BME280;34005;48.844;10.098;2023-01-01T04:01:24;97044.38;;;12.77;62.28
48216;BME280;34005;48.844;10.098;2023-01-01T04:03:53;97048.97;;;12.75;62.85
48216;BME280;34005;48.844;10.098;2023-01-01T04:06:20;97051.75;;;12.74;62.54
48216;BME280;34005;48.844;10.098;2023-01-01T04:08:50;97047.53;;;12.73;62.95
48216;BME280;34005;48.844;10.098;2023-01-01T04:11:22;97052.16;;;12.71;62.50
48216;BME280;34005;48.844;10.098;2023-01-01T04:14:11;97057.72;;;12.68;62.53
48216;BME280;34005;48.844;10.098;2023-01-01T04:16:40;97052.06;;;12.64;62.46
48216;BME280;34005;48.844;10.098;2023-01-01T04:19:07;97059.28;;;12.62;62.48
48216;BME280;34005;48.844;10.098;2023-01-01T04:21:35;97062.88;;;12.61;64.02
48216;BME280;34005;48.844;10.098;2023-01-01T04:24:03;97059.28;;;12.62;63.76
48216;BME280;34005;48.844;10.098;2023-01-01T04:26:30;97052.63;;;12.60;63.33
48216;BME280;34005;48.844;10.098;2023-01-01T04:28:58;97058.03;;;12.58;65.00
48216;BME280;34005;48.844;10.098;2023-01-01T04:31:25;97057.56;;;12.54;63.71
48216;BME280;34005;48.844;10.098;2023-01-01T04:33:54;97062.38;;;12.51;64.83
48216;BME280;34005;48.844;10.098;2023-01-01T04:36:22;97053.91;;;12.49;63.54
48216;BME280;34005;48.844;10.098;2023-01-01T04:38:49;97059.84;;;12.43;63.24
48216;BME280;34005;48.844;10.098;2023-01-01T04:41:17;97063.38;;;12.35;63.10
48216;BME280;34005;48.844;10.098;2023-01-01T04:43:46;97063.75;;;12.32;63.08
48216;BME280;34005;48.844;10.098;2023-01-01T04:46:15;97062.66;;;12.26;62.98
48216;BME280;34005;48.844;10.098;2023-01-01T04:48:43;97067.25;;;12.24;63.54
48216;BME280;34005;48.844;10.098;2023-01-01T04:51:14;97067.63;;;12.21;63.04
48216;BME280;34005;48.844;10.098;2023-01-01T04:53:42;97062.13;;;12.16;63.22
48216;BME280;34005;48.844;10.098;2023-01-01T04:56:11;97062.28;;;12.14;63.48
48216;BME280;34005;48.844;10.098;2023-01-01T04:58:41;97059.03;;;12.12;63.26
48216;BME280;34005;48.844;10.098;2023-01-01T05:01:14;97063.63;;;12.10;63.38
48216;BME280;34005;48.844;10.098;2023-01-01T05:03:42;97061.81;;;12.11;63.40
48216;BME280;34005;48.844;10.098;2023-01-01T05:06:11;97069.03;;;12.09;63.33
48216;BME280;34005;48.844;10.098;2023-01-01T05:08:42;97064.81;;;12.08;63.22
48216;BME280;34005;48.844;10.098;2023-01-01T05:22:04;97073.38;;;12.02;64.51
48216;BME280;34005;48.844;10.098;2023-01-01T06:39:23;97130.22;;;11.16;65.67
48216;BME280;34005;48.844;10.098;2023-01-01T06:41:50;97133.78;;;11.14;65.69
48216;BME280;34005;48.844;10.098;2023-01-01T06:44:18;97125.94;;;11.14;65.53
48216;BME280;34005;48.844;10.098;2023-01-01T06:46:45;97127.75;;;11.14;65.60
48216;BME280;34005;48.844;10.098;2023-01-01T06:59:54;97119.06;;;11.22;65.16
48216;BME280;34005;48.844;10.098;2023-01-01T07:02:22;97124.75;;;11.25;64.90
48216;BME280;34005;48.844;10.098;2023-01-01T07:04:50;97131.63;;;11.26;65.19
48216;BME280;34005;48.844;10.098;2023-01-01T07:07:17;97136.31;;;11.31;64.81
48216;BME280;34005;48.844;10.098;2023-01-01T07:09:45;97143.78;;;11.34;64.66
48216;BME280;34005;48.844;10.098;2023-01-01T07:12:12;97143.47;;;11.37;64.62
48216;BME280;34005;48.844;10.098;2023-01-01T07:14:40;97142.09;;;11.41;65.16
48216;BME280;34005;48.844;10.098;2023-01-01T07:17:09;97148.63;;;11.45;64.60
48216;BME280;34005;48.844;10.098;2023-01-01T07:19:37;97154.16;;;11.50;66.13
48216;BME280;34005;48.844;10.098;2023-01-01T07:22:04;97150.22;;;11.54;65.44
48216;BME280;34005;48.844;10.098;2023-01-01T07:24:32;97163.56;;;11.60;64.67
48216;BME280;34005;48.844;10.098;2023-01-01T07:26:59;97161.59;;;11.62;64.54
48216;BME280;34005;48.844;10.098;2023-01-01T07:29:27;97160.88;;;11.68;65.86
48216;BME280;34005;48.844;10.098;2023-01-01T07:31:54;97180.47;;;11.72;64.68
48216;BME280;34005;48.844;10.098;2023-01-01T07:34:23;97165.22;;;11.75;65.41
48216;BME280;34005;48.844;10.098;2023-01-01T07:36:51;97170.75;;;11.81;65.87
48216;BME280;34005;48.844;10.098;2023-01-01T07:39:18;97178.06;;;11.85;65.09
48216;BME280;34005;48.844;10.098;2023-01-01T07:41:46;97179.03;;;11.92;65.79
48216;BME280;34005;48.844;10.098;2023-01-01T07:44:13;97171.44;;;11.98;65.07
48216;BME280;34005;48.844;10.098;2023-01-01T07:46:41;97169.16;;;12.03;64.32
48216;BME280;34005;48.844;10.098;2023-01-01T07:49:08;97177.25;;;12.08;63.99
48216;BME280;34005;48.844;10.098;2023-01-01T07:51:37;97182.75;;;12.13;63.56
48216;BME280;34005;48.844;10.098;2023-01-01T07:54:05;97187.28;;;12.19;63.29
48216;BME280;34005;48.844;10.098;2023-01-01T07:56:33;97189.19;;;12.25;64.16
48216;BME280;34005;48.844;10.098;2023-01-01T07:59:01;97181.63;;;12.30;63.56
48216;BME280;34005;48.844;10.098;2023-01-01T08:01:29;97193.03;;;12.38;64.86
48216;BME280;34005;48.844;10.098;2023-01-01T08:03:57;97195.28;;;12.41;63.86
48216;BME280;34005;48.844;10.098;2023-01-01T08:06:24;97191.31;;;12.45;63.14
48216;BME280;34005;48.844;10.098;2023-01-01T08:08:53;97190.59;;;12.51;64.09
48216;BME280;34005;48.844;10.098;2023-01-01T08:11:21;97187.25;;;12.57;63.16
48216;BME280;34005;48.844;10.098;2023-01-01T08:13:48;97195.19;;;12.64;61.94
48216;BME280;34005;48.844;10.098;2023-01-01T08:16:16;97189.22;;;12.70;61.65
48216;BME280;34005;48.844;10.098;2023-01-01T08:18:43;97197.19;;;12.76;62.45
48216;BME280;34005;48.844;10.098;2023-01-01T08:21:12;97191.84;;;12.85;63.25
48216;BME280;34005;48.844;10.098;2023-01-01T08:23:40;97188.50;;;12.91;62.66
48216;BME280;34005;48.844;10.098;2023-01-01T08:26:13;97199.88;;;12.98;61.82
48216;BME280;34005;48.844;10.098;2023-01-01T08:28:42;97193.91;;;13.04;61.10
48216;BME280;34005;48.844;10.098;2023-01-01T08:31:10;97196.78;;;13.09;61.72
48216;BME280;34005;48.844;10.098;2023-01-01T08:33:38;97204.72;;;13.16;62.05
48216;BME280;34005;48.844;10.098;2023-01-01T08:36:07;97207.81;;;13.19;61.77
48216;BME280;34005;48.844;10.098;2023-01-01T08:38:36;97210.50;;;13.26;60.25
48216;BME280;34005;48.844;10.098;2023-01-01T08:41:03;97206.38;;;13.32;61.61
48216;BME280;34005;48.844;10.098;2023-01-01T08:43:32;97210.25;;;13.36;60.91
48216;BME280;34005;48.844;10.098;2023-01-01T08:46:00;97205.28;;;13.41;61.51
48216;BME280;34005;48.844;10.098;2023-01-01T08:48:27;97211.13;;;13.43;59.57
48216;BME280;34005;48.844;10.098;2023-01-01T08:50:58;97217.25;;;13.50;59.25
48216;BME280;34005;48.844;10.098;2023-01-01T08:53:26;97217.50;;;13.55;60.70
48216;BME280;34005;48.844;10.098;2023-01-01T08:55:55;97223.03;;;13.60;60.86
48216;BME280;34005;48.844;10.098;2023-01-01T08:58:23;97222.66;;;13.64;60.37
48216;BME280;34005;48.844;10.098;2023-01-01T09:00:52;97225.91;;;13.66;59.39
48216;BME280;34005;48.844;10.098;2023-01-01T09:03:20;97221.91;;;13.70;62.20
48216;BME280;34005;48.844;10.098;2023-01-01T09:05:48;97227.78;;;13.72;61.25
48216;BME280;34005;48.844;10.098;2023-01-01T09:08:16;97226.41;;;13.76;59.91
48216;BME280;34005;48.844;10.098;2023-01-01T09:10:44;97223.41;;;13.79;59.36
48216;BME280;34005;48.844;10.098;2023-01-01T09:13:14;97224.66;;;13.83;60.72
48216;BME280;34005;48.844;10.098;2023-01-01T09:15:42;97228.53;;;13.87;59.09
48216;BME280;34005;48.844;10.098;2023-01-01T09:18:11;97234.03;;;13.92;62.00
48216;BME280;34005;48.844;10.098;2023-01-01T09:20:40;97230.22;;;13.95;59.86
48216;BME280;34005;48.844;10.098;2023-01-01T09:23:07;97233.28;;;13.98;61.12
48216;BME280;34005;48.844;10.098;2023-01-01T09:25:36;97237.78;;;14.05;62.46
48216;BME280;34005;48.844;10.098;2023-01-01T09:28:05;97245.09;;;14.09;62.04
48216;BME280;34005;48.844;10.098;2023-01-01T09:30:34;97239.44;;;14.12;58.98
48216;BME280;34005;48.844;10.098;2023-01-01T09:33:02;97241.72;;;14.15;59.00
48216;BME280;34005;48.844;10.098;2023-01-01T09:35:31;97252.44;;;14.20;59.03
48216;BME280;34005;48.844;10.098;2023-01-01T09:37:59;97242.41;;;14.24;58.30
48216;BME280;34005;48.844;10.098;2023-01-01T09:40:29;97252.31;;;14.29;59.55
48216;BME280;34005;48.844;10.098;2023-01-01T09:43:06;97250.75;;;14.34;58.60
48216;BME280;34005;48.844;10.098;2023-01-01T09:45:41;97251.00;;;14.39;59.79
48216;BME280;34005;48.844;10.098;2023-01-01T09:48:15;97251.84;;;14.47;58.76
48216;BME280;34005;48.844;10.098;2023-01-01T09:50:45;97246.25;;;14.50;58.38
48216;BME280;34005;48.844;10.098;2023-01-01T09:53:17;97249.13;;;14.55;60.92
48216;BME280;34005;48.844;10.098;2023-01-01T09:55:48;97245.13;;;14.59;58.56
48216;BME280;34005;48.844;10.098;2023-01-01T09:58:19;97240.50;;;14.61;60.00
48216;BME280;34005;48.844;10.098;2023-01-01T10:00:51;97237.47;;;14.64;57.90
48216;BME280;34005;48.844;10.098;2023-01-01T10:03:29;97231.84;;;14.67;59.29
48216;BME280;34005;48.844;10.098;2023-01-01T10:06:12;97232.25;;;14.71;56.29
48216;BME280;34005;48.844;10.098;2023-01-01T10:09:02;97230.69;;;14.76;57.05
48216;BME280;34005;48.844;10.098;2023-01-01T10:11:43;97229.31;;;14.80;58.74
48216;BME280;34005;48.844;10.098;2023-01-01T10:14:16;97224.28;;;14.86;56.07
48216;BME280;34005;48.844;10.098;2023-01-01T10:16:45;97225.13;;;14.93;56.60
48216;BME280;34005;48.844;10.098;2023-01-01T10:19:23;97223.72;;;14.97;54.87
48216;BME280;34005;48.844;10.098;2023-01-01T10:21:57;97229.19;;;15.02;56.66
48216;BME280;34005;48.844;10.098;2023-01-01T10:24:34;97220.75;;;15.07;57.81
48216;BME280;34005;48.844;10.098;2023-01-01T10:27:04;97226.25;;;15.12;56.83
48216;BME280;34005;48.844;10.098;2023-01-01T10:29:37;97231.72;;;15.17;56.57
48216;BME280;34005;48.844;10.098;2023-01-01T10:32:18;97239.00;;;15.21;56.97
48216;BME280;34005;48.844;10.098;2023-01-01T10:34:48;97238.63;;;15.24;57.67
48216;BME280;34005;48.844;10.098;2023-01-01T10:37:18;97232.16;;;15.27;55.17
48216;BME280;34005;48.844;10.098;2023-01-01T10:39:47;97230.59;;;15.33;57.19
48216;BME280;34005;48.844;10.098;2023-01-01T10:42:15;97230.00;;;15.37;56.53
48216;BME280;34005;48.844;10.098;2023-01-01T10:44:43;97230.19;;;15.42;57.61
48216;BME280;34005;48.844;10.098;2023-01-01T10:47:23;97225.38;;;15.46;55.06
48216;BME280;34005;48.844;10.098;2023-01-01T10:49:56;97228.22;;;15.51;53.15
48216;BME280;34005;48.844;10.098;2023-01-01T10:52:28;97225.00;;;15.56;52.64
48216;BME280;34005;48.844;10.098;2023-01-01T10:54:57;97224.19;;;15.62;52.62
48216;BME280;34005;48.844;10.098;2023-01-01T10:57:31;97221.78;;;15.67;53.03
48216;BME280;34005;48.844;10.098;2023-01-01T11:03:12;97219.44;;;15.79;51.71
48216;BME280;34005;48.844;10.098;2023-01-01T11:05:59;97222.25;;;15.84;51.01
48216;BME280;34005;48.844;10.098;2023-01-01T11:08:30;97217.41;;;15.88;50.68
48216;BME280;34005;48.844;10.098;2023-01-01T11:11:00;97221.25;;;15.92;50.39
48216;BME280;34005;48.844;10.098;2023-01-01T11:13:29;97214.19;;;15.99;51.12
48216;BME280;34005;48.844;10.098;2023-01-01T11:15:58;97207.28;;;16.04;53.18
48216;BME280;34005;48.844;10.098;2023-01-01T11:18:28;97211.38;;;16.14;50.93
48216;BME280;34005;48.844;10.098;2023-01-01T11:21:03;97209.75;;;16.26;54.07
48216;BME280;34005;48.844;10.098;2023-01-01T11:23:34;97213.38;;;16.38;51.97
48216;BME280;34005;48.844;10.098;2023-01-01T11:26:05;97215.41;;;16.50;52.67
48216;BME280;34005;48.844;10.098;2023-01-01T11:28:34;97206.06;;;16.60;51.34
48216;BME280;34005;48.844;10.098;2023-01-01T11:31:06;97213.16;;;16.73;51.09
48216;BME280;34005;48.844;10.098;2023-01-01T11:33:42;97203.59;;;16.85;52.02
48216;BME280;34005;48.844;10.098;2023-01-01T11:36:10;97201.97;;;16.98;52.58
48216;BME280;34005;48.844;10.098;2023-01-01T11:38:40;97192.19;;;17.12;49.09
48216;BME280;34005;48.844;10.098;2023-01-01T11:41:07;97196.19;;;17.27;51.97
48216;BME280;34005;48.844;10.098;2023-01-01T11:43:39;97179.06;;;17.43;50.04
48216;BME280;34005;48.844;10.098;2023-01-01T11:46:14;97192.78;;;17.59;47.93
48216;BME280;34005;48.844;10.098;2023-01-01T11:48:44;97186.38;;;17.73;49.45
48216;BME280;34005;48.844;10.098;2023-01-01T11:51:28;97178.81;;;17.90;49.44
48216;BME280;34005;48.844;10.098;2023-01-01T11:54:09;97177.69;;;18.04;51.06
48216;BME280;34005;48.844;10.098;2023-01-01T11:56:37;97164.59;;;18.16;48.39
48216;BME280;34005;48.844;10.098;2023-01-01T11:59:12;97166.13;;;18.30;45.25
48216;BME280;34005;48.844;10.098;2023-01-01T12:01:44;97167.38;;;18.46;43.78
48216;BME280;34005;48.844;10.098;2023-01-01T12:04:18;97169.69;;;18.61;46.46
48216;BME280;34005;48.844;10.098;2023-01-01T12:06:49;97158.59;;;18.71;45.86
48216;BME280;34005;48.844;10.098;2023-01-01T12:09:24;97148.94;;;18.83;46.20
48216;BME280;34005;48.844;10.098;2023-01-01T12:12:00;97155.09;;;18.96;47.62
48216;BME280;34005;48.844;10.098;2023-01-01T12:14:34;97149.09;;;19.07;44.32
48216;BME280;34005;48.844;10.098;2023-01-01T12:17:10;97146.69;;;19.17;42.17
48216;BME280;34005;48.844;10.098;2023-01-01T12:19:47;97146.84;;;19.22;43.93
48216;BME280;34005;48.844;10.098;2023-01-01T12:22:19;97146.97;;;19.27;43.32
48216;BME280;34005;48.844;10.098;2023-01-01T12:24:49;97150.22;;;19.29;45.43
48216;BME280;34005;48.844;10.098;2023-01-01T12:27:27;97146.09;;;19.33;43.80
48216;BME280;34005;48.844;10.098;2023-01-01T12:30:10;97143.56;;;19.39;41.80
48216;BME280;34005;48.844;10.098;2023-01-01T12:32:53;97139.91;;;19.40;44.54
48216;BME280;34005;48.844;10.098;2023-01-01T12:35:43;97139.66;;;19.41;43.35
48216;BME280;34005;48.844;10.098;2023-01-01T12:38:24;97138.88;;;19.41;45.15
48216;BME280;34005;48.844;10.098;2023-01-01T12:41:04;97144.75;;;19.43;42.19
48216;BME280;34005;48.844;10.098;2023-01-01T12:43:41;97146.94;;;19.46;44.16
48216;BME280;34005;48.844;10.098;2023-01-01T12:46:37;97136.00;;;19.42;43.12
48216;BME280;34005;48.844;10.098;2023-01-01T12:49:26;97138.88;;;19.41;45.59
48216;BME280;34005;48.844;10.098;2023-01-01T12:52:05;97132.41;;;19.37;46.67
48216;BME280;34005;48.844;10.098;2023-01-01T12:57:45;97118.47;;;19.29;47.14
48216;BME280;34005;48.844;10.098;2023-01-01T13:00:16;97112.00;;;19.25;44.96
48216;BME280;34005;48.844;10.098;2023-01-01T13:02:48;97117.75;;;19.22;47.66
48216;BME280;34005;48.844;10.098;2023-01-01T13:05:19;97113.69;;;19.20;44.62
48216;BME280;34005;48.844;10.098;2023-01-01T13:07:51;97124.53;;;19.18;43.34
48216;BME280;34005;48.844;10.098;2023-01-01T13:10:24;97122.31;;;19.15;43.74
48216;BME280;34005;48.844;10.098;2023-01-01T13:12:54;97115.63;;;19.12;44.33
48216;BME280;34005;48.844;10.098;2023-01-01T13:15:42;97120.13;;;19.12;46.09
48216;BME280;34005;48.844;10.098;2023-01-01T13:18:20;97118.75;;;19.09;44.04
48216;BME280;34005;48.844;10.098;2023-01-01T13:20:55;97120.00;;;19.07;42.28
48216;BME280;34005;48.844;10.098;2023-01-01T13:23:46;97115.94;;;19.04;42.78
48216;BME280;34005;48.844;10.098;2023-01-01T13:26:37;97116.41;;;19.01;43.32
48216;BME280;34005;48.844;10.098;2023-01-01T13:29:28;97127.19;;;19.00;42.19
48216;BME280;34005;48.844;10.098;2023-01-01T13:32:00;97127.63;;;18.97;43.81
48216;BME280;34005;48.844;10.098;2023-01-01T13:37:40;97117.94;;;18.90;46.23
48216;BME280;34005;48.844;10.098;2023-01-01T13:40:29;97119.56;;;18.91;47.19
48216;BME280;34005;48.844;10.098;2023-01-01T13:43:15;97114.72;;;18.88;45.41
48216;BME280;34005;48.844;10.098;2023-01-01T13:45:45;97113.13;;;18.87;43.05
48216;BME280;34005;48.844;10.098;2023-01-01T13:49:14;97115.97;;;18.86;43.42
48216;BME280;34005;48.844;10.098;2023-01-01T13:51:56;97112.53;;;18.85;43.43
48216;BME280;34005;48.844;10.098;2023-01-01T13:55:01;97109.88;;;18.85;43.42
48216;BME280;34005;48.844;10.098;2023-01-01T13:57:51;97110.09;;;18.84;44.59
48216;BME280;34005;48.844;10.098;2023-01-01T14:00:29;97114.00;;;18.81;47.40
48216;BME280;34005;48.844;10.098;2023-01-01T14:03:01;97110.16;;;18.77;45.40
48216;BME280;34005;48.844;10.098;2023-01-01T14:05:32;97107.13;;;18.73;45.70
48216;BME280;34005;48.844;10.098;2023-01-01T14:08:03;97102.09;;;18.72;46.03
48216;BME280;34005;48.844;10.098;2023-01-01T14:10:38;97102.50;;;18.69;44.26
48216;BME280;34005;48.844;10.098;2023-01-01T14:13:15;97105.59;;;18.66;43.98
48216;BME280;34005;48.844;10.098;2023-01-01T14:15:51;97112.94;;;18.64;44.01
48216;BME280;34005;48.844;10.098;2023-01-01T14:18:22;97116.84;;;18.61;44.02
48216;BME280;34005;48.844;10.098;2023-01-01T14:20:53;97108.31;;;18.59;44.09
48216;BME280;34005;48.844;10.098;2023-01-01T14:23:26;97111.38;;;18.56;43.92
48216;BME280;34005;48.844;10.098;2023-01-01T14:25:56;97110.78;;;18.54;46.81
48216;BME280;34005;48.844;10.098;2023-01-01T14:28:26;97099.88;;;18.50;47.33
48216;BME280;34005;48.844;10.098;2023-01-01T14:30:55;97101.13;;;18.48;48.68
48216;BME280;34005;48.844;10.098;2023-01-01T14:33:27;97098.56;;;18.41;47.63
48216;BME280;34005;48.844;10.098;2023-01-01T14:35:57;97095.75;;;18.36;47.64
48216;BME280;34005;48.844;10.098;2023-01-01T14:38:27;97095.41;;;18.32;47.30
48216;BME280;34005;48.844;10.098;2023-01-01T14:41:01;97096.84;;;18.28;47.27
48216;BME280;34005;48.844;10.098;2023-01-01T14:43:35;97092.66;;;18.21;47.29
48216;BME280;34005;48.844;10.098;2023-01-01T14:46:03;97090.06;;;18.14;47.42
48216;BME280;34005;48.844;10.098;2023-01-01T14:48:41;97086.50;;;18.08;50.94
48216;BME280;34005;48.844;10.098;2023-01-01T14:51:11;97089.19;;;18.02;48.08
48216;BME280;34005;48.844;10.098;2023-01-01T14:53:41;97084.97;;;17.94;47.11
48216;BME280;34005;48.844;10.098;2023-01-01T14:56:09;97085.84;;;17.88;47.20
48216;BME280;34005;48.844;10.098;2023-01-01T14:58:39;97089.94;;;17.84;49.83
48216;BME280;34005;48.844;10.098;2023-01-01T15:01:14;97095.22;;;17.77;51.17
48216;BME280;34005;48.844;10.098;2023-01-01T15:03:55;97098.75;;;17.71;48.49